This is the latest recevied weather packets stored in our database for station/object K0QED. If no packets are shown the sender has not sent any weather packets the latest 10 day(s).
| Time | Temp. | Humidity | Pressure | Rain* | Wind** | Luminosity | Snow |
|---|---|---|---|---|---|---|---|
| 1788287399 | 24.44° C | 39% | 1026.7 hPa | 0 mm | - | 626 W/m² | - |
| 1788287095 | 23.89° C | 40% | 1026.7 hPa | 0 mm | - | 616 W/m² | - |
| 1788286795 | 24.44° C | 38% | 1026.9 hPa | 0 mm | - | 611 W/m² | - |
| 1788286494 | 24.44° C | 40% | 1026.9 hPa | 0 mm | - | 590 W/m² | - |
| 1788286194 | 23.89° C | 38% | 1026.6 hPa | 0 mm | - | 606 W/m² | - |
| 1788285893 | 24.44° C | 38% | 1026.6 hPa | 0 mm | - | 607 W/m² | - |
| 1788285604 | 23.33° C | 43% | 1026.9 hPa | 0 mm | - | 635 W/m² | - |
| 1788285286 | 23.33° C | 42% | 1027.1 hPa | 0 mm | - | 651 W/m² | - |
| 1788284982 | 23.89° C | 42% | 1027.2 hPa | 0 mm | - | 662 W/m² | - |
| 1788284677 | 22.78° C | 42% | 1027.2 hPa | 0 mm | - | 672 W/m² | - |
| 1788284373 | 22.78° C | 42% | 1027.2 hPa | 0 mm | - | 672 W/m² | - |
| 1788284068 | 22.22° C | 44% | 1027.5 hPa | 0 mm | - | 692 W/m² | - |
| 1788283764 | 22.78° C | 41% | 1027.4 hPa | 0 mm | - | 712 W/m² | - |
| 1788283459 | 22.22° C | 45% | 1027.4 hPa | 0 mm | - | 666 W/m² | - |
| 1788283157 | 22.22° C | 46% | 1027.4 hPa | 0 mm | - | 538 W/m² | - |
| 1788282855 | 22.22° C | 45% | 1027.4 hPa | 0 mm | - | 629 W/m² | - |
| 1788282554 | 21.67° C | 48% | 1027.6 hPa | 0 mm | - | 769 W/m² | - |
| 1788282244 | 20° C | 54% | 1027.5 hPa | 0 mm | - | 730 W/m² | - |
| 1788281943 | 19.44° C | 55% | 1027.5 hPa | 0 mm | - | 234 W/m² | - |
| 1788281638 | 19.44° C | 54% | 1027.7 hPa | 0 mm | - | 177 W/m² | - |
| 1788281335 | 19.44° C | 56% | 1027.9 hPa | 0 mm | - | 183 W/m² | - |
| 1788281030 | 19.44° C | 56% | 1027.5 hPa | 0 mm | - | 223 W/m² | - |
| 1788280733 | 19.44° C | 57% | 1027.4 hPa | 0 mm | - | 208 W/m² | - |
| 1788280425 | 18.89° C | 56% | 1027.7 hPa | 0 mm | - | 216 W/m² | - |
| 1788280125 | 18.89° C | 56% | 1027.5 hPa | 0 mm | - | 191 W/m² | - |
* Rain latest hour (hover to see other rain measurements)
** Current wind speed in m/s (hover to see current wind gust speed)